sensor_id;sensor_type;location;lat;lon;timestamp;pressure;altitude;pressure_sealevel;temperature;humidity
10720;BME280;5411;58.386;15.560;2022-10-22T00:00:39;100206.41;;;9.22;100.00
10720;BME280;5411;58.386;15.560;2022-10-22T00:03:07;100200.44;;;9.20;100.00
10720;BME280;5411;58.386;15.560;2022-10-22T00:05:43;100201.50;;;9.26;100.00
10720;BME280;5411;58.386;15.560;2022-10-22T00:08:15;100188.78;;;9.28;100.00
10720;BME280;5411;58.386;15.560;2022-10-22T00:10:47;100191.06;;;9.31;100.00
10720;BME280;5411;58.386;15.560;2022-10-22T00:13:15;100185.28;;;9.27;100.00
10720;BME280;5411;58.386;15.560;2022-10-22T00:15:44;100187.16;;;9.34;100.00
10720;BME280;5411;58.386;15.560;2022-10-22T00:18:15;100183.88;;;9.32;100.00
10720;BME280;5411;58.386;15.560;2022-10-22T00:20:43;100188.38;;;9.31;100.00
10720;BME280;5411;58.386;15.560;2022-10-22T00:23:15;100185.91;;;9.29;100.00
10720;BME280;5411;58.386;15.560;2022-10-22T00:25:46;100179.34;;;9.32;100.00
10720;BME280;5411;58.386;15.560;2022-10-22T00:28:24;100176.47;;;9.34;100.00
10720;BME280;5411;58.386;15.560;2022-10-22T00:31:05;100172.16;;;9.33;100.00
10720;BME280;5411;58.386;15.560;2022-10-22T00:33:36;100167.44;;;9.35;100.00
10720;BME280;5411;58.386;15.560;2022-10-22T00:36:05;100162.13;;;9.41;100.00
10720;BME280;5411;58.386;15.560;2022-10-22T00:38:38;100157.41;;;9.43;100.00
10720;BME280;5411;58.386;15.560;2022-10-22T00:41:07;100145.28;;;9.41;100.00
10720;BME280;5411;58.386;15.560;2022-10-22T00:43:54;100157.81;;;9.47;100.00
10720;BME280;5411;58.386;15.560;2022-10-22T00:46:22;100148.59;;;9.43;100.00
10720;BME280;5411;58.386;15.560;2022-10-22T00:48:51;100155.78;;;9.42;100.00
10720;BME280;5411;58.386;15.560;2022-10-22T00:51:21;100155.34;;;9.39;100.00
10720;BME280;5411;58.386;15.560;2022-10-22T00:53:55;100157.38;;;9.37;100.00
10720;BME280;5411;58.386;15.560;2022-10-22T00:56:24;100149.97;;;9.32;100.00
10720;BME280;5411;58.386;15.560;2022-10-22T00:58:56;100144.84;;;9.31;100.00
10720;BME280;5411;58.386;15.560;2022-10-22T01:01:26;100144.84;;;9.31;100.00
10720;BME280;5411;58.386;15.560;2022-10-22T01:03:59;100146.66;;;9.23;100.00
10720;BME280;5411;58.386;15.560;2022-10-22T01:06:30;100149.13;;;9.25;100.00
10720;BME280;5411;58.386;15.560;2022-10-22T01:09:10;100143.78;;;9.25;100.00
10720;BME280;5411;58.386;15.560;2022-10-22T01:11:52;100131.22;;;9.19;100.00
10720;BME280;5411;58.386;15.560;2022-10-22T01:14:26;100138.03;;;9.21;100.00
10720;BME280;5411;58.386;15.560;2022-10-22T01:17:02;100136.38;;;9.20;100.00
10720;BME280;5411;58.386;15.560;2022-10-22T01:19:49;100130.22;;;9.20;100.00
10720;BME280;5411;58.386;15.560;2022-10-22T01:22:27;100126.72;;;9.19;100.00
10720;BME280;5411;58.386;15.560;2022-10-22T01:25:05;100137.81;;;9.23;100.00
10720;BME280;5411;58.386;15.560;2022-10-22T01:28:00;100123.03;;;9.20;100.00
10720;BME280;5411;58.386;15.560;2022-10-22T01:30:39;100121.19;;;9.21;100.00
10720;BME280;5411;58.386;15.560;2022-10-22T01:33:12;100120.78;;;9.17;100.00
10720;BME280;5411;58.386;15.560;2022-10-22T01:35:42;100123.44;;;9.24;100.00
10720;BME280;5411;58.386;15.560;2022-10-22T01:38:14;100129.81;;;9.23;100.00
10720;BME280;5411;58.386;15.560;2022-10-22T01:40:45;100124.47;;;9.23;100.00
10720;BME280;5411;58.386;15.560;2022-10-22T01:43:14;100125.09;;;9.25;100.00
10720;BME280;5411;58.386;15.560;2022-10-22T01:45:49;100124.91;;;9.26;100.00
10720;BME280;5411;58.386;15.560;2022-10-22T01:48:48;100111.53;;;9.20;100.00
10720;BME280;5411;58.386;15.560;2022-10-22T01:51:42;100109.47;;;9.22;100.00
10720;BME280;5411;58.386;15.560;2022-10-22T01:54:30;100103.13;;;9.23;100.00
10720;BME280;5411;58.386;15.560;2022-10-22T01:57:12;100109.28;;;9.23;100.00
10720;BME280;5411;58.386;15.560;2022-10-22T01:59:53;100103.50;;;9.20;100.00
10720;BME280;5411;58.386;15.560;2022-10-22T02:02:34;100107.63;;;9.16;100.00
10720;BME280;5411;58.386;15.560;2022-10-22T02:05:11;100110.28;;;9.16;100.00
10720;BME280;5411;58.386;15.560;2022-10-22T02:07:47;100102.88;;;9.11;100.00
10720;BME280;5411;58.386;15.560;2022-10-22T02:10:18;100096.09;;;9.09;100.00
10720;BME280;5411;58.386;15.560;2022-10-22T02:12:49;100109.88;;;9.12;100.00
10720;BME280;5411;58.386;15.560;2022-10-22T02:15:25;100095.25;;;9.08;100.00
10720;BME280;5411;58.386;15.560;2022-10-22T02:17:58;100084.38;;;9.03;100.00
10720;BME280;5411;58.386;15.560;2022-10-22T02:20:29;100085.59;;;9.01;100.00
10720;BME280;5411;58.386;15.560;2022-10-22T02:22:59;100091.78;;;9.08;100.00
10720;BME280;5411;58.386;15.560;2022-10-22T02:25:32;100093.41;;;9.09;100.00
10720;BME280;5411;58.386;15.560;2022-10-22T02:28:14;100085.41;;;9.09;100.00
10720;BME280;5411;58.386;15.560;2022-10-22T02:30:52;100078.84;;;9.11;100.00
10720;BME280;5411;58.386;15.560;2022-10-22T02:33:27;100073.91;;;9.08;100.00
10720;BME280;5411;58.386;15.560;2022-10-22T02:35:59;100070.84;;;9.11;100.00
10720;BME280;5411;58.386;15.560;2022-10-22T02:38:30;100067.34;;;9.11;100.00
10720;BME280;5411;58.386;15.560;2022-10-22T02:41:00;100062.84;;;9.11;100.00
10720;BME280;5411;58.386;15.560;2022-10-22T02:43:28;100061.19;;;9.10;100.00
10720;BME280;5411;58.386;15.560;2022-10-22T02:45:59;100054.84;;;9.11;100.00
10720;BME280;5411;58.386;15.560;2022-10-22T02:48:29;100049.91;;;9.02;100.00
10720;BME280;5411;58.386;15.560;2022-10-22T02:50:57;100053.19;;;9.04;100.00
10720;BME280;5411;58.386;15.560;2022-10-22T02:53:28;100047.66;;;9.12;100.00
10720;BME280;5411;58.386;15.560;2022-10-22T02:56:00;100044.38;;;9.10;100.00
10720;BME280;5411;58.386;15.560;2022-10-22T02:58:31;100043.09;;;9.06;100.00
10720;BME280;5411;58.386;15.560;2022-10-22T03:01:03;100052.78;;;9.13;100.00
10720;BME280;5411;58.386;15.560;2022-10-22T03:03:45;100050.53;;;9.10;100.00
10720;BME280;5411;58.386;15.560;2022-10-22T03:06:27;100045.78;;;9.06;100.00
10720;BME280;5411;58.386;15.560;2022-10-22T03:08:57;100043.34;;;9.04;100.00
10720;BME280;5411;58.386;15.560;2022-10-22T03:11:27;100057.28;;;9.00;100.00
10720;BME280;5411;58.386;15.560;2022-10-22T03:13:56;100047.00;;;8.97;100.00
10720;BME280;5411;58.386;15.560;2022-10-22T03:16:24;100046.78;;;8.98;100.00
10720;BME280;5411;58.386;15.560;2022-10-22T03:18:54;100048.44;;;8.99;100.00
10720;BME280;5411;58.386;15.560;2022-10-22T03:21:29;100051.31;;;8.98;100.00
10720;BME280;5411;58.386;15.560;2022-10-22T03:24:07;100047.41;;;9.00;100.00
10720;BME280;5411;58.386;15.560;2022-10-22T03:26:40;100045.78;;;8.99;100.00
10720;BME280;5411;58.386;15.560;2022-10-22T03:29:10;100043.34;;;9.04;100.00
10720;BME280;5411;58.386;15.560;2022-10-22T03:31:40;100037.56;;;9.07;100.00
10720;BME280;5411;58.386;15.560;2022-10-22T03:34:11;100036.75;;;9.07;100.00
10720;BME280;5411;58.386;15.560;2022-10-22T03:36:42;100033.28;;;9.13;100.00
10720;BME280;5411;58.386;15.560;2022-10-22T03:39:12;100033.09;;;9.14;100.00
10720;BME280;5411;58.386;15.560;2022-10-22T03:41:42;100029.22;;;9.17;100.00
10720;BME280;5411;58.386;15.560;2022-10-22T03:44:11;100031.06;;;9.16;100.00
10720;BME280;5411;58.386;15.560;2022-10-22T03:46:40;100026.09;;;9.13;100.00
10720;BME280;5411;58.386;15.560;2022-10-22T03:49:10;100029.41;;;9.15;100.00
10720;BME280;5411;58.386;15.560;2022-10-22T03:51:38;100017.72;;;9.16;100.00
10720;BME280;5411;58.386;15.560;2022-10-22T03:54:15;100021.19;;;9.17;100.00
10720;BME280;5411;58.386;15.560;2022-10-22T03:56:56;100022.84;;;9.18;100.00
10720;BME280;5411;58.386;15.560;2022-10-22T03:59:24;100015.84;;;9.17;100.00
10720;BME280;5411;58.386;15.560;2022-10-22T04:01:53;100019.34;;;9.17;100.00
10720;BME280;5411;58.386;15.560;2022-10-22T04:04:23;100023.66;;;9.18;100.00
10720;BME280;5411;58.386;15.560;2022-10-22T04:06:56;100015.84;;;9.17;100.00
10720;BME280;5411;58.386;15.560;2022-10-22T04:09:30;100022.63;;;9.19;100.00
10720;BME280;5411;58.386;15.560;2022-10-22T04:12:01;100006.00;;;9.17;100.00
10720;BME280;5411;58.386;15.560;2022-10-22T04:14:33;100011.34;;;9.17;100.00
10720;BME280;5411;58.386;15.560;2022-10-22T04:17:12;100015.03;;;9.16;100.00
10720;BME280;5411;58.386;15.560;2022-10-22T04:19:42;100001.06;;;9.14;100.00
10720;BME280;5411;58.386;15.560;2022-10-22T04:22:10;100007.22;;;9.15;100.00
10720;BME280;5411;58.386;15.560;2022-10-22T04:24:40;100015.44;;;9.20;100.00
10720;BME280;5411;58.386;15.560;2022-10-22T04:27:11;100012.56;;;9.15;100.00
10720;BME280;5411;58.386;15.560;2022-10-22T04:29:42;100010.09;;;9.20;100.00
10720;BME280;5411;58.386;15.560;2022-10-22T04:32:13;100014.22;;;9.22;100.00
10720;BME280;5411;58.386;15.560;2022-10-22T04:34:47;100000.66;;;9.17;100.00
10720;BME280;5411;58.386;15.560;2022-10-22T04:37:16;99997.56;;;9.20;100.00
10720;BME280;5411;58.386;15.560;2022-10-22T04:39:46;100005.59;;;9.27;100.00
10720;BME280;5411;58.386;15.560;2022-10-22T04:42:14;100008.47;;;9.32;100.00
10720;BME280;5411;58.386;15.560;2022-10-22T04:44:43;99999.25;;;9.35;100.00
10720;BME280;5411;58.386;15.560;2022-10-22T04:47:13;99998.22;;;9.36;100.00
10720;BME280;5411;58.386;15.560;2022-10-22T04:49:45;100004.56;;;9.35;100.00
10720;BME280;5411;58.386;15.560;2022-10-22T04:52:14;100001.91;;;9.35;100.00
10720;BME280;5411;58.386;15.560;2022-10-22T04:54:45;100006.22;;;9.36;100.00
10720;BME280;5411;58.386;15.560;2022-10-22T04:57:14;100001.91;;;9.35;100.00
10720;BME280;5411;58.386;15.560;2022-10-22T04:59:42;99997.00;;;9.38;100.00
10720;BME280;5411;58.386;15.560;2022-10-22T05:02:14;100002.94;;;9.40;100.00
10720;BME280;5411;58.386;15.560;2022-10-22T05:04:51;100001.09;;;9.41;100.00
10720;BME280;5411;58.386;15.560;2022-10-22T05:07:20;99997.00;;;9.38;100.00
10720;BME280;5411;58.386;15.560;2022-10-22T05:09:50;100001.53;;;9.44;100.00
10720;BME280;5411;58.386;15.560;2022-10-22T05:12:21;99991.06;;;9.43;100.00
10720;BME280;5411;58.386;15.560;2022-10-22T05:14:50;99999.06;;;9.43;100.00
10720;BME280;5411;58.386;15.560;2022-10-22T05:17:19;99997.41;;;9.42;100.00
10720;BME280;5411;58.386;15.560;2022-10-22T05:19:54;99995.38;;;9.44;100.00
10720;BME280;5411;58.386;15.560;2022-10-22T05:22:24;100010.94;;;9.47;100.00
10720;BME280;5411;58.386;15.560;2022-10-22T05:24:53;100004.38;;;9.49;100.00
10720;BME280;5411;58.386;15.560;2022-10-22T05:27:21;100004.38;;;9.49;100.00
10720;BME280;5411;58.386;15.560;2022-10-22T05:29:53;100001.94;;;9.54;100.00
10720;BME280;5411;58.386;15.560;2022-10-22T05:32:22;99995.16;;;9.52;100.00
10720;BME280;5411;58.386;15.560;2022-10-22T05:34:52;99993.50;;;9.51;100.00
10720;BME280;5411;58.386;15.560;2022-10-22T05:37:21;99996.78;;;9.53;100.00
10720;BME280;5411;58.386;15.560;2022-10-22T05:39:50;99989.19;;;9.50;100.00
10720;BME280;5411;58.386;15.560;2022-10-22T05:43:03;99992.69;;;9.50;100.00
10720;BME280;5411;58.386;15.560;2022-10-22T05:45:39;99995.97;;;9.52;100.00
10720;BME280;5411;58.386;15.560;2022-10-22T05:48:19;99987.97;;;9.52;100.00
10720;BME280;5411;58.386;15.560;2022-10-22T05:50:49;99993.72;;;9.56;100.00
10720;BME280;5411;58.386;15.560;2022-10-22T05:53:20;99994.53;;;9.56;100.00
10720;BME280;5411;58.386;15.560;2022-10-22T05:55:49;99995.97;;;9.59;100.00
10720;BME280;5411;58.386;15.560;2022-10-22T05:58:18;99990.03;;;9.57;100.00
10720;BME280;5411;58.386;15.560;2022-10-22T06:00:46;99988.38;;;9.56;100.00
10720;BME280;5411;58.386;15.560;2022-10-22T06:03:15;99989.41;;;9.55;100.00
10720;BME280;5411;58.386;15.560;2022-10-22T06:05:45;99993.72;;;9.56;100.00
10720;BME280;5411;58.386;15.560;2022-10-22T06:08:15;99985.91;;;9.54;100.00
10720;BME280;5411;58.386;15.560;2022-10-22T06:10:52;99990.03;;;9.57;100.00
10720;BME280;5411;58.386;15.560;2022-10-22T06:13:21;99981.81;;;9.58;100.00
10720;BME280;5411;58.386;15.560;2022-10-22T06:15:49;99989.59;;;9.67;100.00
10720;BME280;5411;58.386;15.560;2022-10-22T06:18:21;99991.69;;;9.71;100.00
10720;BME280;5411;58.386;15.560;2022-10-22T06:20:51;99984.69;;;9.70;100.00
10720;BME280;5411;58.386;15.560;2022-10-22T06:23:37;99986.72;;;9.75;100.00
10720;BME280;5411;58.386;15.560;2022-10-22T06:26:08;99994.13;;;9.79;100.00
10720;BME280;5411;58.386;15.560;2022-10-22T06:28:42;99993.28;;;9.72;100.00
10720;BME280;5411;58.386;15.560;2022-10-22T06:31:11;99998.63;;;9.79;100.00
10720;BME280;5411;58.386;15.560;2022-10-22T06:33:43;100000.69;;;9.83;100.00
10720;BME280;5411;58.386;15.560;2022-10-22T06:36:13;100002.75;;;9.88;100.00
10720;BME280;5411;58.386;15.560;2022-10-22T06:38:45;100005.63;;;9.93;100.00
10720;BME280;5411;58.386;15.560;2022-10-22T06:41:17;99999.88;;;9.96;100.00
10720;BME280;5411;58.386;15.560;2022-10-22T06:43:53;100004.38;;;9.95;100.00
10720;BME280;5411;58.386;15.560;2022-10-22T06:46:24;100006.84;;;9.97;100.00
10720;BME280;5411;58.386;15.560;2022-10-22T06:48:56;100012.41;;;9.95;100.00
10720;BME280;5411;58.386;15.560;2022-10-22T06:51:26;100002.75;;;9.88;100.00
10720;BME280;5411;58.386;15.560;2022-10-22T06:54:12;100007.25;;;9.87;100.00
10720;BME280;5411;58.386;15.560;2022-10-22T06:56:45;100010.34;;;9.91;100.00
10720;BME280;5411;58.386;15.560;2022-10-22T06:59:15;100006.44;;;9.87;100.00
10720;BME280;5411;58.386;15.560;2022-10-22T07:01:49;100002.53;;;9.89;100.00
10720;BME280;5411;58.386;15.560;2022-10-22T07:04:41;100011.78;;;9.93;100.00
10720;BME280;5411;58.386;15.560;2022-10-22T07:07:13;100008.69;;;9.90;100.00
10720;BME280;5411;58.386;15.560;2022-10-22T07:09:43;100009.94;;;9.94;100.00
10720;BME280;5411;58.386;15.560;2022-10-22T07:12:23;100015.25;;;10.00;100.00
10720;BME280;5411;58.386;15.560;2022-10-22T07:14:58;100005.41;;;9.94;100.00
10720;BME280;5411;58.386;15.560;2022-10-22T07:17:27;100009.91;;;10.00;100.00
10720;BME280;5411;58.386;15.560;2022-10-22T07:19:59;100011.16;;;10.05;100.00
10720;BME280;5411;58.386;15.560;2022-10-22T07:22:32;100011.97;;;10.05;100.00
10720;BME280;5411;58.386;15.560;2022-10-22T07:25:11;100014.44;;;10.07;100.00
10720;BME280;5411;58.386;15.560;2022-10-22T07:27:39;100011.78;;;10.07;100.00
10720;BME280;5411;58.386;15.560;2022-10-22T07:30:11;100007.03;;;10.02;100.00
10720;BME280;5411;58.386;15.560;2022-10-22T07:32:42;100015.47;;;10.06;100.00
10720;BME280;5411;58.386;15.560;2022-10-22T07:35:11;100007.25;;;10.07;100.00
10720;BME280;5411;58.386;15.560;2022-10-22T07:37:41;100010.94;;;10.06;100.00
10720;BME280;5411;58.386;15.560;2022-10-22T07:40:11;100013.41;;;10.08;100.00
10720;BME280;5411;58.386;15.560;2022-10-22T07:42:42;99995.31;;;10.03;100.00
10720;BME280;5411;58.386;15.560;2022-10-22T07:45:14;100010.34;;;10.11;100.00
10720;BME280;5411;58.386;15.560;2022-10-22T07:47:42;100003.13;;;10.11;100.00
10720;BME280;5411;58.386;15.560;2022-10-22T07:50:11;100015.84;;;10.16;100.00
10720;BME280;5411;58.386;15.560;2022-10-22T07:52:41;100014.66;;;10.18;100.00
10720;BME280;5411;58.386;15.560;2022-10-22T07:55:15;100021.25;;;10.22;100.00
10720;BME280;5411;58.386;15.560;2022-10-22T07:57:43;100010.72;;;10.27;100.00
10720;BME280;5411;58.386;15.560;2022-10-22T08:00:18;100002.06;;;10.32;100.00
10720;BME280;5411;58.386;15.560;2022-10-22T08:02:51;100002.91;;;10.32;100.00
10720;BME280;5411;58.386;15.560;2022-10-22T08:05:42;100007.44;;;10.39;100.00
10720;BME280;5411;58.386;15.560;2022-10-22T08:08:13;100013.16;;;10.42;100.00
10720;BME280;5411;58.386;15.560;2022-10-22T08:10:45;100012.13;;;10.43;100.00
10720;BME280;5411;58.386;15.560;2022-10-22T08:13:14;100010.69;;;10.41;100.00
10720;BME280;5411;58.386;15.560;2022-10-22T08:15:43;100010.69;;;10.41;100.00
10720;BME280;5411;58.386;15.560;2022-10-22T08:18:15;100012.13;;;10.43;100.00
10720;BME280;5411;58.386;15.560;2022-10-22T08:20:44;100010.09;;;10.39;100.00
10720;BME280;5411;58.386;15.560;2022-10-22T08:23:12;100019.72;;;10.46;100.00
10720;BME280;5411;58.386;15.560;2022-10-22T08:25:45;100012.13;;;10.43;100.00
10720;BME280;5411;58.386;15.560;2022-10-22T08:28:14;100016.19;;;10.52;100.00
10720;BME280;5411;58.386;15.560;2022-10-22T08:30:47;100024.22;;;10.59;100.00
10720;BME280;5411;58.386;15.560;2022-10-22T08:33:20;100031.78;;;10.68;100.00
10720;BME280;5411;58.386;15.560;2022-10-22T08:35:51;100026.63;;;10.74;100.00
10720;BME280;5411;58.386;15.560;2022-10-22T08:38:20;100029.72;;;10.77;100.00
10720;BME280;5411;58.386;15.560;2022-10-22T08:40:52;100028.44;;;10.80;100.00
10720;BME280;5411;58.386;15.560;2022-10-22T08:43:40;100032.16;;;10.79;100.00
10720;BME280;5411;58.386;15.560;2022-10-22T08:46:29;100033.22;;;10.78;100.00
10720;BME280;5411;58.386;15.560;2022-10-22T08:49:09;100023.75;;;10.75;100.00
10720;BME280;5411;58.386;15.560;2022-10-22T08:51:39;100030.69;;;10.83;100.00
10720;BME280;5411;58.386;15.560;2022-10-22T08:54:16;100031.31;;;10.85;100.00
10720;BME280;5411;58.386;15.560;2022-10-22T09:00:19;100016.06;;;10.92;100.00
10720;BME280;5411;58.386;15.560;2022-10-22T09:03:01;100020.16;;;10.94;100.00
10720;BME280;5411;58.386;15.560;2022-10-22T09:08:51;100013.53;;;11.03;100.00
10720;BME280;5411;58.386;15.560;2022-10-22T09:11:32;100018.63;;;11.12;100.00
10720;BME280;5411;58.386;15.560;2022-10-22T09:14:16;100019.66;;;11.11;100.00
10720;BME280;5411;58.386;15.560;2022-10-22T09:17:01;100015.72;;;11.13;100.00
10720;BME280;5411;58.386;15.560;2022-10-22T09:19:41;100016.97;;;11.17;100.00
10720;BME280;5411;58.386;15.560;2022-10-22T09:22:19;100018.34;;;11.20;100.00
10720;BME280;5411;58.386;15.560;2022-10-22T09:24:55;100009.97;;;11.16;100.00
10720;BME280;5411;58.386;15.560;2022-10-22T09:27:28;100009.91;;;11.23;100.00
10720;BME280;5411;58.386;15.560;2022-10-22T09:29:57;100003.13;;;11.20;100.00
10720;BME280;5411;58.386;15.560;2022-10-22T09:32:41;100002.91;;;11.22;100.00
10720;BME280;5411;58.386;15.560;2022-10-22T09:35:11;100016.06;;;11.30;100.00
10720;BME280;5411;58.386;15.560;2022-10-22T09:37:47;100011.34;;;11.25;100.00
10720;BME280;5411;58.386;15.560;2022-10-22T09:40:18;100011.53;;;11.24;100.00
10720;BME280;5411;58.386;15.560;2022-10-22T09:42:47;100014.00;;;11.25;100.00
10720;BME280;5411;58.386;15.560;2022-10-22T09:45:20;100005.22;;;11.18;100.00
10720;BME280;5411;58.386;15.560;2022-10-22T09:48:02;100003.13;;;11.20;100.00
10720;BME280;5411;58.386;15.560;2022-10-22T09:50:42;99999.78;;;11.25;100.00
10720;BME280;5411;58.386;15.560;2022-10-22T09:53:28;100001.44;;;11.26;100.00
10720;BME280;5411;58.386;15.560;2022-10-22T09:56:07;99998.13;;;11.30;100.00
10720;BME280;5411;58.386;15.560;2022-10-22T09:58:49;99991.28;;;11.34;100.00
10720;BME280;5411;58.386;15.560;2022-10-22T10:01:22;99993.31;;;11.39;100.00
10720;BME280;5411;58.386;15.560;2022-10-22T10:03:54;99990.22;;;11.42;100.00
10720;BME280;5411;58.386;15.560;2022-10-22T10:06:36;99994.03;;;11.53;100.00
10720;BME280;5411;58.386;15.560;2022-10-22T10:09:13;99991.16;;;11.54;100.00
10720;BME280;5411;58.386;15.560;2022-10-22T10:11:52;99983.25;;;11.59;100.00
10720;BME280;5411;58.386;15.560;2022-10-22T10:14:31;99989.94;;;11.75;100.00
10720;BME280;5411;58.386;15.560;2022-10-22T10:17:19;99987.38;;;11.87;100.00
10720;BME280;5411;58.386;15.560;2022-10-22T10:20:09;99985.84;;;11.97;100.00
10720;BME280;5411;58.386;15.560;2022-10-22T10:22:49;99976.53;;;12.00;100.00
10720;BME280;5411;58.386;15.560;2022-10-22T10:25:40;99980.41;;;12.04;100.00
10720;BME280;5411;58.386;15.560;2022-10-22T10:28:22;99976.78;;;12.17;100.00
10720;BME280;5411;58.386;15.560;2022-10-22T10:31:02;99980.56;;;12.27;100.00
10720;BME280;5411;58.386;15.560;2022-10-22T10:33:46;99973.94;;;12.30;100.00
10720;BME280;5411;58.386;15.560;2022-10-22T10:36:32;99978.22;;;12.37;100.00
10720;BME280;5411;58.386;15.560;2022-10-22T10:39:19;99971.34;;;12.41;100.00
10720;BME280;5411;58.386;15.560;2022-10-22T10:41:57;99976.63;;;12.48;100.00
10720;BME280;5411;58.386;15.560;2022-10-22T10:44:43;99981.31;;;12.53;100.00
10720;BME280;5411;58.386;15.560;2022-10-22T10:47:32;99966.78;;;12.42;100.00
10720;BME280;5411;58.386;15.560;2022-10-22T10:50:19;99969.09;;;12.38;100.00
10720;BME280;5411;58.386;15.560;2022-10-22T10:53:02;99967.00;;;12.40;100.00
10720;BME280;5411;58.386;15.560;2022-10-22T10:55:37;99966.88;;;12.35;100.00
10720;BME280;5411;58.386;15.560;2022-10-22T10:58:16;99967.53;;;12.31;100.00
10720;BME280;5411;58.386;15.560;2022-10-22T11:00:54;99965.53;;;12.26;100.00
10720;BME280;5411;58.386;15.560;2022-10-22T11:04:04;99959.72;;;12.29;100.00
10720;BME280;5411;58.386;15.560;2022-10-22T11:06:54;99966.13;;;12.28;100.00
10720;BME280;5411;58.386;15.560;2022-10-22T11:09:42;99965.91;;;12.30;100.00
10720;BME280;5411;58.386;15.560;2022-10-22T11:12:22;99943.00;;;12.27;100.00
10720;BME280;5411;58.386;15.560;2022-10-22T11:15:02;99957.31;;;12.39;100.00
10720;BME280;5411;58.386;15.560;2022-10-22T11:18:00;99962.03;;;12.44;100.00
10720;BME280;5411;58.386;15.560;2022-10-22T11:20:47;99956.44;;;12.45;100.00
10720;BME280;5411;58.386;15.560;2022-10-22T11:23:26;99946.38;;;12.41;100.00
10720;BME280;5411;58.386;15.560;2022-10-22T11:26:26;99947.88;;;12.37;100.00
10720;BME280;5411;58.386;15.560;2022-10-22T11:29:06;99948.09;;;12.35;100.00
10720;BME280;5411;58.386;15.560;2022-10-22T11:31:46;99945.69;;;12.27;100.00
10720;BME280;5411;58.386;15.560;2022-10-22T11:34:19;99951.59;;;12.18;100.00
10720;BME280;5411;58.386;15.560;2022-10-22T11:37:00;99941.78;;;12.11;100.00
10720;BME280;5411;58.386;15.560;2022-10-22T11:39:38;99950.25;;;12.08;100.00
10720;BME280;5411;58.386;15.560;2022-10-22T11:42:34;99950.09;;;12.03;100.00
10720;BME280;5411;58.386;15.560;2022-10-22T11:45:29;99944.81;;;11.97;100.00
10720;BME280;5411;58.386;15.560;2022-10-22T11:48:15;99941.38;;;11.90;100.00
10720;BME280;5411;58.386;15.560;2022-10-22T11:50:58;99932.06;;;11.92;100.00
10720;BME280;5411;58.386;15.560;2022-10-22T11:53:33;99930.00;;;11.94;100.00
10720;BME280;5411;58.386;15.560;2022-10-22T11:56:23;99934.16;;;11.90;100.00
10720;BME280;5411;58.386;15.560;2022-10-22T11:58:58;99931.19;;;11.98;100.00
10720;BME280;5411;58.386;15.560;2022-10-22T12:01:39;99939.38;;;12.03;100.00
10720;BME280;5411;58.386;15.560;2022-10-22T12:04:19;99940.84;;;11.99;100.00
10720;BME280;5411;58.386;15.560;2022-10-22T12:06:57;99931.69;;;11.89;100.00
10720;BME280;5411;58.386;15.560;2022-10-22T12:09:31;99937.47;;;11.86;100.00
10720;BME280;5411;58.386;15.560;2022-10-22T12:12:19;99938.81;;;11.76;100.00
10720;BME280;5411;58.386;15.560;2022-10-22T12:14:55;99931.66;;;11.70;100.00
10720;BME280;5411;58.386;15.560;2022-10-22T12:17:30;99931.09;;;11.62;100.00
10720;BME280;5411;58.386;15.560;2022-10-22T12:20:12;99938.31;;;11.61;100.00
10720;BME280;5411;58.386;15.560;2022-10-22T12:22:47;99927.16;;;11.64;100.00
10720;BME280;5411;58.386;15.560;2022-10-22T12:25:24;99931.31;;;11.60;100.00
10720;BME280;5411;58.386;15.560;2022-10-22T12:28:09;99930.72;;;11.58;100.00
10720;BME280;5411;58.386;15.560;2022-10-22T12:30:41;99942.41;;;11.64;100.00
10720;BME280;5411;58.386;15.560;2022-10-22T12:33:19;99932.59;;;11.58;100.00
10720;BME280;5411;58.386;15.560;2022-10-22T12:35:53;99933.63;;;11.57;100.00
10720;BME280;5411;58.386;15.560;2022-10-22T12:38:23;99938.97;;;11.57;100.00
10720;BME280;5411;58.386;15.560;2022-10-22T12:40:54;99934.06;;;11.54;100.00
10720;BME280;5411;58.386;15.560;2022-10-22T12:43:25;99942.31;;;11.52;100.00
10720;BME280;5411;58.386;15.560;2022-10-22T12:45:58;99943.16;;;11.46;100.00
10720;BME280;5411;58.386;15.560;2022-10-22T12:48:29;99935.84;;;11.35;100.00
10720;BME280;5411;58.386;15.560;2022-10-22T12:51:03;99932.19;;;11.29;100.00
10720;BME280;5411;58.386;15.560;2022-10-22T12:53:36;99945.81;;;11.28;100.00
10720;BME280;5411;58.386;15.560;2022-10-22T12:56:11;99935.59;;;11.18;100.00
10720;BME280;5411;58.386;15.560;2022-10-22T12:58:44;99935.84;;;11.10;100.00
10720;BME280;5411;58.386;15.560;2022-10-22T13:01:24;99933.00;;;11.05;100.00
10720;BME280;5411;58.386;15.560;2022-10-22T13:04:04;99939.22;;;10.99;100.00
10720;BME280;5411;58.386;15.560;2022-10-22T13:06:35;99933.88;;;10.92;100.00
10720;BME280;5411;58.386;15.560;2022-10-22T13:09:12;99944.56;;;10.99;100.00
10720;BME280;5411;58.386;15.560;2022-10-22T13:11:49;99939.63;;;10.96;100.00
10720;BME280;5411;58.386;15.560;2022-10-22T13:14:25;99949.72;;;10.94;100.00
10720;BME280;5411;58.386;15.560;2022-10-22T13:17:06;99938.88;;;10.89;100.00
10720;BME280;5411;58.386;15.560;2022-10-22T13:19:37;99940.31;;;10.85;100.00
10720;BME280;5411;58.386;15.560;2022-10-22T13:22:40;99940.31;;;10.85;100.00
10720;BME280;5411;58.386;15.560;2022-10-22T13:25:23;99946.91;;;10.82;100.00
10720;BME280;5411;58.386;15.560;2022-10-22T13:27:56;99943.25;;;10.77;100.00
10720;BME280;5411;58.386;15.560;2022-10-22T13:30:27;99935.25;;;10.70;100.00
10720;BME280;5411;58.386;15.560;2022-10-22T13:32:59;99942.47;;;10.69;100.00
10720;BME280;5411;58.386;15.560;2022-10-22T13:35:30;99937.38;;;10.61;100.00
10720;BME280;5411;58.386;15.560;2022-10-22T13:38:13;99940.25;;;10.60;100.00